Time;durP1;ratioP1;P1;durP2;ratioP2;P2;SDS_P1;SDS_P2;PMS_P1;PMS_P2;Temp;Humidity;BMP_temperature;BMP_pressure;BME280_temperature;BME280_humidity;BME280_pressure;Samples;Min_cycle;Max_cycle;Signal;HPM_P1;HPM_P2
2022/03/16 00:00:13;;;;;;;56.67;26.73;;;8.30;57.80;;;;;;5046872;28;20204;-79
2022/03/16 00:02:44;;;;;;;56.77;26.57;;;8.30;57.80;;;;;;5043705;28;20944;-79
2022/03/16 00:05:15;;;;;;;54.13;26.40;;;8.30;57.90;;;;;;5045193;28;20196;-79
2022/03/16 00:07:43;;;;;;;54.33;27.77;;;8.20;58.00;;;;;;5044783;28;20196;-79
2022/03/16 00:10:12;;;;;;;68.67;26.83;;;8.30;58.30;;;;;;5044623;28;20243;-78
2022/03/16 00:12:42;;;;;;;52.73;24.97;;;8.30;58.30;;;;;;5043693;28;20207;-79
2022/03/16 00:15:11;;;;;;;55.47;27.00;;;8.20;58.40;;;;;;5047094;28;20198;-78
2022/03/16 00:17:40;;;;;;;49.50;27.83;;;8.20;58.50;;;;;;5044052;28;20609;-79
2022/03/16 00:20:09;;;;;;;55.80;28.23;;;8.20;58.50;;;;;;5043072;28;20196;-79
2022/03/16 00:22:39;;;;;;;52.03;27.00;;;8.20;58.50;;;;;;5042339;28;20204;-79
2022/03/16 00:25:08;;;;;;;54.50;26.80;;;8.20;58.50;;;;;;5040612;28;20200;-78
2022/03/16 00:27:36;;;;;;;51.73;27.03;;;8.10;58.40;;;;;;5042090;28;20261;-79
2022/03/16 00:30:05;;;;;;;50.20;27.43;;;8.10;58.40;;;;;;5044468;28;20855;-79
2022/03/16 00:32:33;;;;;;;51.63;27.43;;;8.10;58.60;;;;;;5041219;28;20203;-78
2022/03/16 00:35:02;;;;;;;51.50;26.43;;;8.10;58.70;;;;;;5043566;28;20208;-78
2022/03/16 00:37:32;;;;;;;51.97;27.10;;;8.10;58.90;;;;;;5043663;28;20246;-78
2022/03/16 00:40:02;;;;;;;51.23;26.27;;;8.10;58.90;;;;;;5042274;28;20198;-79
2022/03/16 00:42:31;;;;;;;50.23;26.73;;;8.10;59.00;;;;;;5044845;28;20915;-79
2022/03/16 00:44:59;;;;;;;50.47;26.47;;;8.10;59.00;;;;;;5044912;28;20212;-79
2022/03/16 00:47:27;;;;;;;55.50;25.93;;;8.10;59.20;;;;;;5041716;28;20259;-78
2022/03/16 00:49:55;;;;;;;50.00;25.57;;;8.10;59.30;;;;;;5043320;28;20224;-79
2022/03/16 00:52:24;;;;;;;51.17;25.27;;;8.00;59.30;;;;;;5042806;28;20327;-79
2022/03/16 00:54:52;;;;;;;50.63;26.63;;;8.00;59.50;;;;;;5042294;28;20733;-79
2022/03/16 00:57:22;;;;;;;53.20;25.90;;;8.00;59.40;;;;;;5042228;28;20670;-78
2022/03/16 00:59:50;;;;;;;51.10;26.60;;;8.00;59.30;;;;;;5040693;28;20884;-79
2022/03/16 01:02:18;;;;;;;50.03;25.90;;;8.00;59.30;;;;;;5041235;28;20199;-78
2022/03/16 01:04:47;;;;;;;53.77;26.33;;;8.00;59.20;;;;;;5042025;28;20201;-79
2022/03/16 01:07:15;;;;;;;52.03;26.27;;;8.10;59.40;;;;;;5043404;28;20224;-79
2022/03/16 01:09:43;;;;;;;55.67;26.50;;;8.00;59.60;;;;;;5044308;28;20187;-79
2022/03/16 01:12:12;;;;;;;57.08;29.88;;;8.00;59.60;;;;;;5041849;28;21011;-79
2022/03/16 01:14:42;;;;;;;51.77;27.33;;;8.00;59.80;;;;;;5044285;28;20199;-79
2022/03/16 01:17:10;;;;;;;49.80;25.23;;;8.00;59.90;;;;;;5042685;28;20239;-78
2022/03/16 01:19:39;;;;;;;49.67;26.07;;;8.00;59.90;;;;;;5043348;28;21014;-78
2022/03/16 01:22:08;;;;;;;53.47;25.60;;;8.00;59.90;;;;;;5043249;28;20197;-79
2022/03/16 01:24:36;;;;;;;56.53;27.30;;;8.00;60.00;;;;;;5042254;28;20603;-78
2022/03/16 01:27:05;;;;;;;53.43;26.33;;;8.00;60.20;;;;;;5040357;28;20227;-79
2022/03/16 01:29:33;;;;;;;50.00;24.83;;;8.00;60.10;;;;;;5040512;28;20659;-79
2022/03/16 01:32:03;;;;;;;52.90;27.17;;;8.00;60.00;;;;;;5041561;28;20212;-79
2022/03/16 01:34:32;;;;;;;49.97;25.37;;;8.00;60.10;;;;;;5044157;28;20206;-79
2022/03/16 01:37:01;;;;;;;52.17;26.10;;;8.00;60.20;;;;;;5042863;28;20679;-80
2022/03/16 01:39:30;;;;;;;50.73;25.07;;;8.00;61.10;;;;;;5040454;28;20337;-79
2022/03/16 01:41:58;;;;;;;54.57;25.77;;;8.00;60.30;;;;;;5042751;28;20212;-79
2022/03/16 01:44:45;;;;;;;54.03;25.87;;;8.00;60.20;;;;;;5041209;28;20200;-79
2022/03/16 01:47:16;;;;;;;55.83;26.60;;;8.00;60.20;;;;;;5041768;28;20203;-79
2022/03/16 01:49:45;;;;;;;50.70;26.40;;;8.00;60.00;;;;;;5038717;28;20199;-79
2022/03/16 01:52:17;;;;;;;50.93;24.97;;;8.10;60.00;;;;;;5045108;28;20222;-78
2022/03/16 01:54:45;;;;;;;47.93;26.40;;;8.10;60.00;;;;;;5046152;28;20193;-78
2022/03/16 01:57:15;;;;;;;47.57;24.57;;;8.10;59.90;;;;;;5043318;28;20206;-78
2022/03/16 01:59:44;;;;;;;52.43;25.87;;;8.10;59.90;;;;;;5038908;28;20213;-78
2022/03/16 02:02:15;;;;;;;49.77;24.77;;;8.10;59.80;;;;;;5041731;28;20197;-79
2022/03/16 02:04:44;;;;;;;48.80;24.77;;;8.10;59.80;;;;;;5042023;28;20228;-79
2022/03/16 02:07:13;;;;;;;52.97;26.73;;;8.10;59.70;;;;;;5042192;28;20202;-79
2022/03/16 02:09:41;;;;;;;49.50;25.70;;;8.10;59.60;;;;;;5041537;28;20215;-78
2022/03/16 02:12:12;;;;;;;50.33;25.90;;;8.20;59.50;;;;;;5042487;28;20215;-79
2022/03/16 02:14:41;;;;;;;55.27;26.60;;;8.10;59.60;;;;;;5040540;28;20311;-78
2022/03/16 02:17:09;;;;;;;58.27;27.83;;;8.20;59.80;;;;;;5042849;28;20254;-78
2022/03/16 02:19:39;;;;;;;55.70;28.17;;;8.10;59.80;;;;;;5039149;28;20329;-78
2022/03/16 02:22:13;;;;;;;49.23;25.30;;;8.10;59.80;;;;;;5041845;28;20194;-79
2022/03/16 02:24:43;;;;;;;57.40;26.20;;;8.20;59.90;;;;;;5043154;28;20198;-77
2022/03/16 02:27:11;;;;;;;51.53;26.13;;;8.10;59.80;;;;;;5041555;28;20252;-79
2022/03/16 02:29:39;;;;;;;54.97;27.90;;;8.10;59.80;;;;;;5042604;28;20204;-79
2022/03/16 02:32:08;;;;;;;51.20;26.97;;;8.10;59.90;;;;;;5044895;28;20275;-78
2022/03/16 02:34:37;;;;;;;51.57;26.50;;;8.10;59.90;;;;;;5047261;28;20200;-78
2022/03/16 02:37:05;;;;;;;52.00;27.00;;;8.10;59.90;;;;;;5045926;28;21110;-77
2022/03/16 02:39:34;;;;;;;51.43;26.70;;;8.10;60.00;;;;;;5043607;28;20941;-78
2022/03/16 02:42:05;;;;;;;59.10;27.40;;;8.10;60.00;;;;;;5044879;28;20192;-77
2022/03/16 02:44:34;;;;;;;51.00;27.30;;;8.10;59.90;;;;;;5045823;28;20201;-78
2022/03/16 02:47:02;;;;;;;50.40;26.67;;;8.10;60.80;;;;;;5047081;28;20708;-79
2022/03/16 02:49:31;;;;;;;55.63;26.90;;;8.10;60.00;;;;;;5044947;28;20249;-78
2022/03/16 02:51:59;;;;;;;60.63;29.13;;;8.10;60.10;;;;;;5045507;28;20239;-80
2022/03/16 02:54:27;;;;;;;49.50;27.03;;;8.10;60.00;;;;;;5046162;28;20196;-79
2022/03/16 02:56:56;;;;;;;53.03;28.57;;;8.10;59.90;;;;;;5046104;28;20655;-79
2022/03/16 02:59:26;;;;;;;55.83;28.77;;;8.10;59.80;;;;;;5045548;28;20220;-79
2022/03/16 03:01:54;;;;;;;61.33;30.47;;;8.10;59.70;;;;;;5044653;28;20199;-78
2022/03/16 03:04:23;;;;;;;55.60;28.67;;;8.10;59.60;;;;;;5044899;28;20227;-78
2022/03/16 03:06:52;;;;;;;54.87;29.07;;;8.10;59.70;;;;;;5045497;28;20231;-79
2022/03/16 03:09:20;;;;;;;57.30;28.87;;;8.10;60.60;;;;;;5046842;28;20210;-78
2022/03/16 03:11:48;;;;;;;65.07;30.33;;;8.10;59.90;;;;;;5046404;28;20220;-78
2022/03/16 03:14:16;;;;;;;61.97;30.00;;;8.10;60.00;;;;;;5023860;28;20201;-79
2022/03/16 03:16:47;;;;;;;59.27;29.07;;;8.10;59.90;;;;;;5043780;28;20926;-78
2022/03/16 03:19:22;;;;;;;62.70;29.87;;;8.10;59.90;;;;;;5044933;28;20197;-79
2022/03/16 03:21:50;;;;;;;61.23;29.33;;;8.10;59.70;;;;;;5042112;28;20194;-78
2022/03/16 03:24:19;;;;;;;58.73;30.37;;;8.10;59.70;;;;;;5045411;28;20195;-79
2022/03/16 03:26:47;;;;;;;59.43;29.93;;;8.10;59.60;;;;;;5044638;28;20199;-78
2022/03/16 03:29:15;;;;;;;52.43;28.23;;;8.10;59.60;;;;;;5045819;28;20221;-79
2022/03/16 03:31:45;;;;;;;57.10;29.93;;;8.10;59.60;;;;;;5045601;28;20220;-79
2022/03/16 03:34:14;;;;;;;60.90;30.33;;;8.10;59.70;;;;;;5046978;28;20224;-80
2022/03/16 03:36:42;;;;;;;58.67;28.53;;;8.10;59.70;;;;;;5043838;28;20272;-79
2022/03/16 03:39:11;;;;;;;58.40;29.90;;;8.10;59.80;;;;;;5045132;28;20199;-78
2022/03/16 03:41:39;;;;;;;61.63;30.47;;;8.10;59.80;;;;;;5043864;28;20258;-78
2022/03/16 03:44:08;;;;;;;51.70;28.67;;;8.10;59.90;;;;;;5044224;28;20213;-79
2022/03/16 03:46:36;;;;;;;62.83;30.70;;;8.00;59.70;;;;;;5043824;28;20671;-78
2022/03/16 03:49:06;;;;;;;58.93;31.20;;;8.00;59.70;;;;;;5046195;28;20199;-78
2022/03/16 03:51:34;;;;;;;55.70;29.00;;;8.00;59.80;;;;;;5042170;28;20230;-78
2022/03/16 03:54:02;;;;;;;63.17;31.07;;;8.00;60.00;;;;;;5043142;28;20200;-79
2022/03/16 03:56:31;;;;;;;53.13;28.80;;;8.00;60.20;;;;;;5044288;28;20206;-78
2022/03/16 03:58:59;;;;;;;63.53;29.83;;;8.00;60.20;;;;;;5045480;28;20692;-79
2022/03/16 04:01:27;;;;;;;60.40;29.80;;;8.00;60.20;;;;;;5046407;28;20203;-79
2022/03/16 04:03:56;;;;;;;61.77;30.73;;;8.00;60.00;;;;;;5046155;28;20231;-79
2022/03/16 04:06:26;;;;;;;53.03;29.63;;;8.00;60.10;;;;;;5047876;28;20622;-79
2022/03/16 04:08:55;;;;;;;58.70;30.03;;;8.00;60.60;;;;;;5045259;28;21605;-78
2022/03/16 04:11:23;;;;;;;61.47;30.40;;;7.90;60.40;;;;;;5047091;28;20255;-79
2022/03/16 04:13:51;;;;;;;59.73;30.80;;;7.90;60.60;;;;;;5043436;28;20204;-79
2022/03/16 04:17:12;;;;;;;65.03;29.63;;;7.90;60.60;;;;;;5057482;28;20201;-80
2022/03/16 04:23:49;;;;;;;56.83;29.43;;;7.90;60.60;;;;;;4906983;29;20268;-79
2022/03/16 04:26:39;;;;;;;57.90;30.63;;;7.90;60.80;;;;;;4894756;28;20235;-78
2022/03/16 04:29:08;;;;;;;65.77;29.90;;;7.90;60.80;;;;;;4960391;28;20201;-78
2022/03/16 04:31:38;;;;;;;59.57;29.57;;;7.80;60.80;;;;;;5011655;28;20270;-78
2022/03/16 04:34:07;;;;;;;71.10;32.17;;;7.80;61.00;;;;;;5014000;28;20211;-79
2022/03/16 04:36:35;;;;;;;55.13;30.83;;;7.80;61.10;;;;;;5011288;28;20204;-80
2022/03/16 04:39:05;;;;;;;59.23;32.27;;;7.80;61.10;;;;;;5009551;28;20269;-79
2022/03/16 04:41:33;;;;;;;61.50;30.57;;;7.80;61.20;;;;;;5011923;28;20207;-79
2022/03/16 04:44:05;;;;;;;59.53;29.63;;;7.80;61.10;;;;;;5020458;28;20227;-79
2022/03/16 04:46:33;;;;;;;63.23;31.40;;;7.80;61.30;;;;;;5010024;28;20278;-79
2022/03/16 04:49:01;;;;;;;60.50;30.77;;;7.80;61.60;;;;;;5013914;28;20188;-79
2022/03/16 04:51:30;;;;;;;54.57;30.30;;;7.70;61.50;;;;;;5012870;28;20215;-78
2022/03/16 04:53:58;;;;;;;64.67;30.80;;;7.70;61.70;;;;;;5026081;28;20214;-79
2022/03/16 04:56:28;;;;;;;58.97;30.77;;;7.70;61.80;;;;;;5041240;28;20771;-78
2022/03/16 04:58:57;;;;;;;61.37;31.20;;;7.70;62.00;;;;;;5043505;28;20743;-79
2022/03/16 05:01:25;;;;;;;57.20;29.93;;;7.60;62.60;;;;;;5046361;28;20193;-78
2022/03/16 05:03:53;;;;;;;51.63;30.33;;;7.60;62.70;;;;;;5044381;28;20223;-78
2022/03/16 05:06:22;;;;;;;64.07;31.30;;;7.60;62.70;;;;;;5042882;28;20892;-78
2022/03/16 05:08:50;;;;;;;69.37;31.60;;;7.60;62.50;;;;;;5043127;28;20258;-78
2022/03/16 05:11:21;;;;;;;63.00;31.60;;;7.60;62.40;;;;;;5043870;28;20668;-78
2022/03/16 05:13:51;;;;;;;63.50;32.20;;;7.60;62.50;;;;;;5052472;28;20207;-77
2022/03/16 05:16:19;;;;;;;76.57;35.37;;;7.50;62.50;;;;;;5049922;28;20203;-79
2022/03/16 05:18:47;;;;;;;67.20;34.63;;;7.60;62.50;;;;;;5048531;28;20202;-78
2022/03/16 05:21:16;;;;;;;68.50;35.53;;;7.60;62.40;;;;;;5048778;28;20200;-79
2022/03/16 05:23:44;;;;;;;62.93;34.70;;;7.60;62.40;;;;;;5047445;28;20199;-78
2022/03/16 05:26:12;;;;;;;69.60;37.22;;;7.60;62.30;;;;;;5046862;28;20440;-78
2022/03/16 05:28:40;;;;;;;67.63;33.23;;;7.60;62.50;;;;;;5050674;28;21077;-79
2022/03/16 05:31:10;;;;;;;66.20;33.40;;;7.60;62.70;;;;;;5049282;28;20191;-79
2022/03/16 05:33:41;;;;;;;60.20;32.13;;;7.60;62.70;;;;;;5050380;28;20848;-79
2022/03/16 05:36:09;;;;;;;64.03;32.10;;;7.60;62.60;;;;;;5050296;28;20210;-79
2022/03/16 05:38:38;;;;;;;60.63;31.40;;;7.60;62.50;;;;;;5048009;28;20294;-79
2022/03/16 05:41:06;;;;;;;61.97;29.37;;;7.70;62.50;;;;;;5047002;28;20222;-80
2022/03/16 05:43:34;;;;;;;68.17;30.40;;;7.70;62.10;;;;;;5046155;28;20195;-79
2022/03/16 05:46:03;;;;;;;61.33;29.63;;;7.70;62.00;;;;;;5051110;28;20199;-80
2022/03/16 05:48:32;;;;;;;67.53;31.07;;;7.70;62.00;;;;;;5054560;28;20194;-78
2022/03/16 05:51:01;;;;;;;64.83;30.37;;;7.70;62.00;;;;;;5051901;28;20200;-78
2022/03/16 05:53:29;;;;;;;71.07;32.73;;;7.80;62.00;;;;;;5044825;28;20214;-79
2022/03/16 05:55:57;;;;;;;65.23;32.83;;;7.80;61.90;;;;;;5043976;28;20203;-78
2022/03/16 05:58:26;;;;;;;67.27;31.93;;;7.80;61.90;;;;;;5043650;28;20196;-79
2022/03/16 06:00:54;;;;;;;66.57;32.60;;;7.80;61.90;;;;;;5044954;28;20199;-80
2022/03/16 06:03:22;;;;;;;60.67;30.83;;;7.80;61.80;;;;;;5040473;28;20235;-80
2022/03/16 06:05:52;;;;;;;85.77;34.77;;;7.80;61.80;;;;;;5042273;28;20610;-79
2022/03/16 06:08:20;;;;;;;65.87;32.87;;;7.90;61.80;;;;;;5042430;28;20202;-80
2022/03/16 06:10:48;;;;;;;67.07;34.00;;;7.90;61.80;;;;;;5042805;28;20201;-80
2022/03/16 06:13:17;;;;;;;74.07;36.33;;;7.90;61.80;;;;;;5043966;28;20811;-79
2022/03/16 06:15:46;;;;;;;66.63;34.40;;;7.90;61.80;;;;;;5042968;28;20195;-79
2022/03/16 06:18:14;;;;;;;76.10;36.67;;;7.90;61.90;;;;;;5044105;28;20207;-79
2022/03/16 06:20:42;;;;;;;73.30;36.97;;;7.90;62.80;;;;;;5041719;28;20230;-80
2022/03/16 06:23:12;;;;;;;80.30;36.60;;;8.00;62.10;;;;;;5045144;28;20660;-80
2022/03/16 06:25:41;;;;;;;75.47;36.70;;;8.00;61.90;;;;;;5045238;28;20722;-79
2022/03/16 06:28:09;;;;;;;73.67;35.50;;;8.00;61.90;;;;;;5043284;28;20265;-79
2022/03/16 06:30:38;;;;;;;62.47;34.00;;;8.00;61.70;;;;;;5044702;28;20670;-78
2022/03/16 06:33:06;;;;;;;66.30;33.17;;;8.10;61.50;;;;;;5045136;28;21069;-79
2022/03/16 06:35:35;;;;;;;67.37;33.33;;;8.10;61.40;;;;;;5045999;28;20688;-80
2022/03/16 06:38:03;;;;;;;74.00;39.97;;;8.10;61.20;;;;;;5043169;28;20205;-79
2022/03/16 06:40:33;;;;;;;72.20;38.27;;;8.10;61.20;;;;;;5042173;28;20965;-79
2022/03/16 06:43:01;;;;;;;71.83;39.10;;;8.10;61.20;;;;;;5041590;28;20203;-79
2022/03/16 06:45:30;;;;;;;70.53;39.27;;;8.10;61.10;;;;;;5042281;28;20218;-79
2022/03/16 06:48:02;;;;;;;78.05;42.75;;;8.10;61.00;;;;;;5041435;28;20451;-80
2022/03/16 06:50:32;;;;;;;69.73;37.23;;;8.20;61.10;;;;;;5042392;28;20216;-79
2022/03/16 06:53:03;;;;;;;69.77;38.10;;;8.20;61.20;;;;;;5044082;28;20710;-79
2022/03/16 06:55:33;;;;;;;68.50;37.07;;;8.30;60.80;;;;;;5043601;28;20775;-78
2022/03/16 06:58:01;;;;;;;69.50;36.63;;;8.30;60.40;;;;;;5045383;28;20203;-79
2022/03/16 07:00:30;;;;;;;77.80;41.40;;;8.40;60.40;;;;;;5045838;28;20198;-79
2022/03/16 07:03:00;;;;;;;96.90;58.20;;;8.40;60.30;;;;;;5044995;28;20878;-78
2022/03/16 07:05:30;;;;;;;93.37;54.63;;;8.50;60.20;;;;;;5041337;28;20207;-78
2022/03/16 07:07:59;;;;;;;79.40;41.67;;;8.50;59.90;;;;;;5042803;28;20201;-79
2022/03/16 07:10:28;;;;;;;62.70;36.27;;;8.60;59.80;;;;;;5042090;28;20300;-78
2022/03/16 07:12:58;;;;;;;59.40;32.03;;;8.60;59.70;;;;;;5044339;28;20663;-79
2022/03/16 07:15:28;;;;;;;63.40;32.30;;;8.70;59.60;;;;;;5043384;28;20218;-79
2022/03/16 07:17:56;;;;;;;64.33;32.60;;;8.80;59.60;;;;;;5043072;28;20675;-79
2022/03/16 07:20:24;;;;;;;56.70;29.40;;;8.80;59.20;;;;;;5046546;28;20206;-78
2022/03/16 07:23:05;;;;;;;66.73;32.07;;;8.80;58.70;;;;;;5045689;28;20684;-78
2022/03/16 07:25:37;;;;;;;60.53;30.50;;;8.90;58.90;;;;;;5045645;28;20672;-78
2022/03/16 07:28:07;;;;;;;52.77;27.17;;;8.90;58.80;;;;;;5048812;28;20211;-79
2022/03/16 07:30:36;;;;;;;55.87;26.80;;;9.00;58.30;;;;;;5046498;28;20192;-78
2022/03/16 07:33:05;;;;;;;50.23;25.93;;;9.00;57.70;;;;;;5047355;28;20253;-79
2022/03/16 07:35:35;;;;;;;46.57;27.10;;;9.00;57.80;;;;;;5046756;28;20221;-79
2022/03/16 07:38:04;;;;;;;50.50;26.13;;;9.10;58.00;;;;;;5050899;28;20210;-79
2022/03/16 07:40:35;;;;;;;46.07;25.37;;;9.20;58.00;;;;;;5051686;28;20527;-78
2022/03/16 07:43:04;;;;;;;52.27;25.10;;;9.20;57.80;;;;;;5053361;28;20300;-79
2022/03/16 07:45:35;;;;;;;51.93;25.37;;;9.30;57.70;;;;;;5047787;28;20197;-81
2022/03/16 07:48:05;;;;;;;52.50;27.53;;;9.30;57.50;;;;;;5049843;28;20625;-79
2022/03/16 07:50:33;;;;;;;52.63;27.77;;;9.40;57.50;;;;;;5047945;28;20852;-77
2022/03/16 07:53:02;;;;;;;56.43;27.83;;;9.40;57.30;;;;;;5050210;28;20923;-78
2022/03/16 07:55:30;;;;;;;50.53;26.90;;;9.50;57.00;;;;;;5046340;28;20230;-77
2022/03/16 07:57:59;;;;;;;67.03;31.03;;;9.50;56.90;;;;;;5045203;28;20753;-78
2022/03/16 08:00:27;;;;;;;60.40;30.77;;;9.50;56.60;;;;;;5044849;28;20226;-78
2022/03/16 08:03:01;;;;;;;61.20;32.07;;;9.50;56.90;;;;;;5045126;28;20248;-77
2022/03/16 08:05:31;;;;;;;51.70;27.27;;;9.60;57.00;;;;;;5043404;28;20209;-80
2022/03/16 08:07:59;;;;;;;57.27;27.23;;;9.60;56.80;;;;;;5042790;28;20737;-78
2022/03/16 08:10:28;;;;;;;51.07;25.13;;;9.60;56.70;;;;;;5043585;28;20729;-79
2022/03/16 08:12:56;;;;;;;51.60;25.50;;;9.70;56.80;;;;;;5044809;28;20202;-79
2022/03/16 08:15:25;;;;;;;53.07;23.83;;;9.70;56.70;;;;;;5045678;28;20232;-77
2022/03/16 08:17:56;;;;;;;46.07;22.50;;;9.70;56.80;;;;;;5044725;28;20206;-77
2022/03/16 08:20:25;;;;;;;46.37;23.37;;;9.80;56.70;;;;;;5045696;28;20198;-77
2022/03/16 08:22:56;;;;;;;45.57;22.97;;;9.80;56.60;;;;;;5044868;28;20242;-76
2022/03/16 08:25:44;;;;;;;44.07;21.73;;;9.80;56.50;;;;;;5044456;28;20321;-77
2022/03/16 08:28:13;;;;;;;38.60;20.47;;;9.80;57.10;;;;;;5045069;28;20729;-77
2022/03/16 08:30:41;;;;;;;38.53;20.33;;;9.80;55.90;;;;;;5043284;28;20976;-75
2022/03/16 08:33:09;;;;;;;37.60;19.33;;;9.80;55.90;;;;;;5045899;28;20203;-76
2022/03/16 08:35:39;;;;;;;38.17;20.13;;;9.80;56.00;;;;;;5044658;28;20938;-77
2022/03/16 08:38:07;;;;;;;47.27;20.93;;;9.90;56.80;;;;;;5044203;28;20199;-76
2022/03/16 08:40:36;;;;;;;38.30;20.70;;;9.90;56.20;;;;;;5044916;28;20206;-76
2022/03/16 08:43:05;;;;;;;40.53;20.63;;;9.90;55.90;;;;;;5044748;28;20302;-76
2022/03/16 08:45:39;;;;;;;40.37;20.10;;;10.00;55.90;;;;;;5043710;28;20195;-76
2022/03/16 08:48:08;;;;;;;45.43;20.93;;;10.00;55.80;;;;;;5045022;28;20190;-77
2022/03/16 08:50:36;;;;;;;39.93;20.23;;;10.00;55.90;;;;;;5043336;28;20199;-77
2022/03/16 08:53:06;;;;;;;38.67;19.30;;;10.00;55.60;;;;;;5043851;28;20199;-76
2022/03/16 08:55:34;;;;;;;38.33;19.87;;;10.10;55.60;;;;;;5043508;28;20211;-77
2022/03/16 08:58:04;;;;;;;42.17;19.27;;;10.10;55.30;;;;;;5043351;28;20259;-76
2022/03/16 09:00:32;;;;;;;41.50;18.20;;;10.10;55.40;;;;;;5044078;28;20203;-77
2022/03/16 09:03:02;;;;;;;41.17;19.93;;;10.20;55.30;;;;;;5043815;28;20313;-77
2022/03/16 09:05:31;;;;;;;36.97;20.30;;;10.20;55.20;;;;;;5044811;28;20229;-76
2022/03/16 09:07:59;;;;;;;37.00;21.00;;;10.20;55.10;;;;;;5043103;28;20245;-76
2022/03/16 09:10:29;;;;;;;42.07;22.03;;;10.30;55.20;;;;;;5042685;28;20206;-76
2022/03/16 09:12:58;;;;;;;48.77;24.67;;;10.30;55.10;;;;;;5044592;28;20207;-77
2022/03/16 09:15:27;;;;;;;46.27;24.93;;;10.30;55.00;;;;;;5042280;28;20219;-77
2022/03/16 09:17:56;;;;;;;57.43;24.97;;;10.30;54.90;;;;;;5043141;28;20293;-78
2022/03/16 09:20:25;;;;;;;49.67;24.50;;;10.30;54.80;;;;;;5043211;28;20202;-75
2022/03/16 09:22:53;;;;;;;47.20;24.83;;;10.40;54.80;;;;;;5043954;28;20575;-76
2022/03/16 09:25:24;;;;;;;44.17;23.93;;;10.40;54.70;;;;;;5043499;28;20194;-76
2022/03/16 09:27:53;;;;;;;44.50;22.27;;;10.40;54.70;;;;;;5042483;28;20250;-76
2022/03/16 09:30:22;;;;;;;49.67;23.07;;;10.40;54.70;;;;;;5043735;28;20203;-76
2022/03/16 09:32:50;;;;;;;44.73;24.30;;;10.40;54.70;;;;;;5043406;28;20280;-76
2022/03/16 09:35:18;;;;;;;49.77;23.83;;;10.50;55.20;;;;;;5043417;28;20703;-77
2022/03/16 09:37:47;;;;;;;42.60;21.93;;;10.50;55.00;;;;;;5043022;28;21326;-76
2022/03/16 09:40:15;;;;;;;50.83;23.07;;;10.60;55.10;;;;;;5043932;28;20221;-76
2022/03/16 09:42:46;;;;;;;49.40;22.53;;;10.60;55.10;;;;;;5043003;28;20206;-77
2022/03/16 09:45:18;;;;;;;37.73;21.03;;;10.60;55.10;;;;;;5043959;28;20221;-76
2022/03/16 09:47:47;;;;;;;36.40;20.47;;;10.70;55.80;;;;;;5041973;28;20197;-77
2022/03/16 09:50:20;;;;;;;42.37;21.10;;;10.70;55.20;;;;;;5042706;28;20224;-77
2022/03/16 09:52:49;;;;;;;39.47;21.27;;;10.70;55.20;;;;;;5043144;28;20270;-77
2022/03/16 09:55:20;;;;;;;38.90;20.57;;;10.70;54.90;;;;;;5044511;28;20215;-77
2022/03/16 09:57:48;;;;;;;42.07;21.27;;;10.70;54.90;;;;;;5043573;28;20222;-76
2022/03/16 10:00:18;;;;;;;43.97;21.27;;;10.80;54.90;;;;;;5045481;28;20199;-77
2022/03/16 10:02:48;;;;;;;43.43;20.50;;;10.80;54.80;;;;;;5042883;28;20230;-78
2022/03/16 10:05:16;;;;;;;43.87;19.80;;;10.80;54.70;;;;;;5042470;28;20207;-76
2022/03/16 10:07:48;;;;;;;40.50;20.70;;;10.90;54.50;;;;;;5045522;28;20202;-77
2022/03/16 10:13:21;;;;;;;37.33;20.27;;;10.90;54.20;;;;;;5045765;28;20194;-77
2022/03/16 10:15:51;;;;;;;44.80;19.80;;;11.00;54.20;;;;;;5049819;28;20835;-77
2022/03/16 10:18:22;;;;;;;43.60;22.47;;;11.00;54.40;;;;;;5044317;28;20207;-77
2022/03/16 10:20:52;;;;;;;43.67;22.27;;;11.00;54.20;;;;;;5044140;28;20187;-77
2022/03/16 10:23:21;;;;;;;55.30;26.97;;;11.00;54.30;;;;;;5043349;28;20576;-78
2022/03/16 10:25:51;;;;;;;74.23;30.73;;;11.00;54.20;;;;;;5046257;28;20219;-77
2022/03/16 10:28:21;;;;;;;73.20;32.13;;;11.10;54.20;;;;;;5046472;28;20207;-76
2022/03/16 10:30:55;;;;;;;75.77;34.07;;;11.10;54.20;;;;;;5045291;28;20207;-77
2022/03/16 10:33:30;;;;;;;70.43;31.53;;;11.10;54.00;;;;;;5044104;28;20197;-77
2022/03/16 10:36:02;;;;;;;61.70;27.13;;;11.20;54.10;;;;;;5044361;28;20201;-77
2022/03/16 10:38:46;;;;;;;59.13;26.60;;;11.20;53.80;;;;;;5045433;28;20209;-77
2022/03/16 10:47:18;;;;;;;41.23;21.60;;;11.40;53.90;;;;;;5045720;28;20182;-77
2022/03/16 10:49:49;;;;;;;46.07;22.53;;;11.40;53.70;;;;;;5043038;28;20195;-78
2022/03/16 10:52:18;;;;;;;47.87;22.50;;;11.50;53.70;;;;;;5047156;28;20199;-77
2022/03/16 10:54:48;;;;;;;43.60;24.07;;;11.50;53.40;;;;;;5048945;28;20691;-77
2022/03/16 10:57:16;;;;;;;47.27;23.97;;;11.50;53.30;;;;;;5048151;28;20276;-77
2022/03/16 10:59:48;;;;;;;43.57;22.67;;;11.60;53.40;;;;;;5047943;28;20794;-77
2022/03/16 11:02:20;;;;;;;40.17;22.43;;;11.60;53.30;;;;;;5047628;28;20226;-78
2022/03/16 11:04:51;;;;;;;40.70;21.47;;;11.60;53.40;;;;;;5046261;28;20191;-77
2022/03/16 11:07:20;;;;;;;40.30;21.43;;;11.60;53.10;;;;;;5047367;28;20325;-77
2022/03/16 11:09:49;;;;;;;47.53;23.80;;;11.70;53.10;;;;;;5047900;28;20195;-77
2022/03/16 11:15:11;;;;;;;42.43;21.67;;;11.70;53.00;;;;;;5048310;28;20287;-78
2022/03/16 11:17:42;;;;;;;44.33;22.30;;;11.70;53.10;;;;;;5046415;28;20450;-78
2022/03/16 11:20:12;;;;;;;44.30;21.27;;;11.70;53.10;;;;;;5046989;28;20196;-77
2022/03/16 11:24:15;;;;;;;42.77;20.87;;;11.70;53.10;;;;;;5048863;28;20264;-77
2022/03/16 11:25:49;;;;;;;52.73;24.67;;;11.70;53.10;;;;;;5047191;28;20271;-77
2022/03/16 11:28:25;;;;;;;44.57;21.83;;;11.70;53.20;;;;;;5046499;28;20198;-77
2022/03/16 11:30:55;;;;;;;39.97;20.77;;;11.80;53.10;;;;;;5047776;28;20195;-78
2022/03/16 11:33:26;;;;;;;33.07;18.20;;;11.80;53.00;;;;;;5046045;28;20652;-77
2022/03/16 11:35:57;;;;;;;37.33;18.50;;;11.80;52.50;;;;;;5046107;28;20706;-77
2022/03/16 11:38:25;;;;;;;37.33;19.03;;;11.80;52.40;;;;;;5046093;28;20244;-77
2022/03/16 11:40:53;;;;;;;32.70;19.47;;;11.80;52.30;;;;;;5047058;28;20225;-78
2022/03/16 11:43:23;;;;;;;40.57;19.80;;;11.80;52.40;;;;;;5047547;28;20195;-77
2022/03/16 11:45:54;;;;;;;40.93;20.43;;;11.80;52.40;;;;;;5044843;28;20250;-77
2022/03/16 11:48:48;;;;;;;39.37;20.63;;;11.80;52.30;;;;;;5047285;28;20209;-78
2022/03/16 11:51:25;;;;;;;38.07;20.93;;;11.80;52.40;;;;;;5047165;28;20657;-77
2022/03/16 11:54:20;;;;;;;44.47;22.10;;;11.80;52.50;;;;;;5046128;28;20904;-78
2022/03/16 11:56:53;;;;;;;40.77;21.50;;;11.80;52.50;;;;;;5044636;28;20202;-79
2022/03/16 11:59:44;;;;;;;44.10;22.63;;;11.80;52.50;;;;;;5046905;28;20198;-77
2022/03/16 12:02:27;;;;;;;45.77;20.47;;;11.80;52.20;;;;;;5047276;28;20296;-79
2022/03/16 12:05:02;;;;;;;46.60;22.00;;;11.80;52.40;;;;;;5044312;28;20195;-78
2022/03/16 12:07:34;;;;;;;44.00;23.20;;;11.80;52.40;;;;;;5043458;28;20880;-77
2022/03/16 12:10:11;;;;;;;46.27;25.87;;;11.90;52.40;;;;;;5045031;28;20211;-79
2022/03/16 12:12:54;;;;;;;45.90;25.93;;;11.90;52.10;;;;;;5043172;28;20195;-78
2022/03/16 12:15:30;;;;;;;47.50;26.10;;;11.90;52.20;;;;;;5044896;28;20805;-77
2022/03/16 12:18:34;;;;;;;47.80;26.30;;;11.90;52.20;;;;;;5045019;28;20214;-77
2022/03/16 12:21:10;;;;;;;50.33;26.93;;;11.90;51.90;;;;;;5045300;28;20257;-77
2022/03/16 12:25:08;;;;;;;51.73;26.33;;;12.00;52.10;;;;;;5044416;28;20199;-77
2022/03/16 12:29:36;;;;;;;50.63;25.53;;;12.00;52.50;;;;;;5046276;28;20222;-77
2022/03/16 12:32:06;;;;;;;54.77;26.70;;;12.10;52.50;;;;;;5044414;28;20820;-77
2022/03/16 12:34:34;;;;;;;44.57;23.87;;;12.10;52.50;;;;;;5048234;28;20228;-77
2022/03/16 12:37:11;;;;;;;43.93;23.77;;;12.20;52.50;;;;;;5044854;28;20219;-77
2022/03/16 12:39:45;;;;;;;49.60;26.13;;;12.20;52.20;;;;;;5045521;28;20206;-78
2022/03/16 12:42:31;;;;;;;50.73;26.23;;;12.30;52.20;;;;;;5044707;28;20237;-78
2022/03/16 12:45:09;;;;;;;50.43;25.77;;;12.30;52.20;;;;;;5041070;28;20213;-77
2022/03/16 12:47:42;;;;;;;49.50;27.47;;;12.30;51.90;;;;;;5045555;28;20281;-77
2022/03/16 12:50:16;;;;;;;59.50;28.13;;;12.40;52.00;;;;;;5045438;28;20201;-77
2022/03/16 12:52:51;;;;;;;52.00;27.80;;;12.40;52.10;;;;;;5045061;28;20195;-77
2022/03/16 12:55:20;;;;;;;46.40;27.10;;;12.40;52.30;;;;;;5044584;28;20623;-77
2022/03/16 12:57:52;;;;;;;60.20;28.40;;;12.50;52.20;;;;;;5044346;28;20230;-78
2022/03/16 13:00:21;;;;;;;54.10;28.17;;;12.50;52.10;;;;;;5043685;28;20260;-77
2022/03/16 13:02:50;;;;;;;55.23;28.97;;;12.50;52.10;;;;;;5044002;28;20315;-78
2022/03/16 13:05:21;;;;;;;51.50;28.57;;;12.50;52.20;;;;;;5043966;28;20818;-77
2022/03/16 13:07:57;;;;;;;52.00;25.97;;;12.60;52.50;;;;;;5045980;28;20195;-77